Time;durP1;ratioP1;P1;durP2;ratioP2;P2;SDS_P1;SDS_P2;PMS_P1;PMS_P2;Temp;Humidity;BMP_temperature;BMP_pressure;BME280_temperature;BME280_humidity;BME280_pressure;Samples;Min_cycle;Max_cycle;Signal;HPM_P1;HPM_P2
2021/06/26 00:18:57;;;;;;;30.3;27.4;;;;;;;16.5;68.6;101650;;;;
2021/06/26 00:20:57;;;;;;;30.3;27.4;;;;;;;16.2;71.4;101650;;;;
2021/06/26 00:22:57;;;;;;;30.3;27.4;;;;;;;16.4;71.4;101650;;;;
2021/06/26 00:24:57;;;;;;;30.3;27.4;;;;;;;16.3;71.0;101650;;;;
2021/06/26 00:28:57;;;;;;;30.3;27.4;;;;;;;16.2;70.7;101650;;;;
2021/06/26 00:30:57;;;;;;;30.3;27.4;;;;;;;16.1;72.4;101650;;;;
2021/06/26 00:32:57;;;;;;;30.3;27.4;;;;;;;16.3;68.5;101650;;;;
2021/06/26 00:34:57;;;;;;;30.3;27.4;;;;;;;16.0;71.7;101650;;;;
2021/06/26 01:24:23;;;;;;;31.2;28.2;;;;;;;16.0;69.7;101650;;;;
2021/06/26 01:24:34;;;;;;;31.2;28.2;;;;;;;16.1;68.4;101660;;;;
2021/06/26 01:37:50;;;;;;;32.6;29.2;;;;;;;15.9;68.0;101650;;;;
2021/06/26 01:39:50;;;;;;;32.6;29.2;;;;;;;15.8;69.8;101650;;;;
2021/06/26 01:41:50;;;;;;;32.6;29.2;;;;;;;15.9;68.9;101650;;;;
2021/06/26 02:17:57;;;;;;;31.6;28.5;;;;;;;15.5;71.0;101670;;;;
2021/06/26 02:19:57;;;;;;;31.6;28.5;;;;;;;15.6;69.9;101670;;;;
2021/06/26 02:21:57;;;;;;;31.6;28.5;;;;;;;15.4;73.0;101670;;;;
2021/06/26 02:23:57;;;;;;;31.6;28.5;;;;;;;15.3;74.3;101670;;;;
2021/06/26 02:25:57;;;;;;;31.6;28.5;;;;;;;15.2;72.5;101670;;;;
2021/06/26 02:38:29;;;;;;;30.7;27.8;;;;;;;15.4;73.9;101660;;;;
2021/06/26 02:40:31;;;;;;;30.7;27.8;;;;;;;15.5;71.7;101670;;;;
2021/06/26 02:42:29;;;;;;;30.7;27.8;;;;;;;15.2;74.5;101670;;;;
2021/06/26 02:50:30;;;;;;;30.7;27.8;;;;;;;15.0;75.2;101660;;;;
2021/06/26 02:52:29;;;;;;;30.7;27.8;;;;;;;15.2;73.6;101670;;;;
2021/06/26 02:54:29;;;;;;;30.7;27.8;;;;;;;15.3;72.1;101660;;;;
2021/06/26 02:58:29;;;;;;;31.2;28.2;;;;;;;15.4;73.6;101660;;;;
2021/06/26 03:00:30;;;;;;;31.2;28.2;;;;;;;15.5;70.3;101660;;;;
2021/06/26 03:02:29;;;;;;;31.2;28.2;;;;;;;15.6;70.4;101660;;;;
2021/06/26 03:12:29;;;;;;;31.2;28.2;;;;;;;15.7;69.7;101660;;;;
2021/06/26 03:16:29;;;;;;;31.2;28.2;;;;;;;15.8;69.7;101660;;;;
2021/06/26 03:38:07;;;;;;;31.4;28.2;;;;;;;15.9;70.7;101660;;;;
2021/06/26 03:40:07;;;;;;;31.4;28.2;;;;;;;15.8;71.2;101660;;;;
2021/06/26 03:57:23;;;;;;;32.6;29.4;;;;;;;16.0;70.4;101660;;;;
2021/06/26 04:01:23;;;;;;;32.6;29.4;;;;;;;15.9;71.6;101660;;;;
2021/06/26 04:05:23;;;;;;;32.6;29.4;;;;;;;16.0;71.2;101660;;;;
2021/06/26 04:07:23;;;;;;;32.6;29.4;;;;;;;16.1;71.3;101660;;;;
2021/06/26 04:09:23;;;;;;;32.6;29.4;;;;;;;15.9;71.9;101660;;;;
2021/06/26 04:15:23;;;;;;;32.6;29.4;;;;;;;16.0;71.5;101670;;;;
2021/06/26 04:17:23;;;;;;;33.8;30.4;;;;;;;16.1;73.0;101670;;;;
2021/06/26 04:19:23;;;;;;;33.8;30.4;;;;;;;16.0;71.6;101670;;;;
2021/06/26 04:21:23;;;;;;;33.8;30.4;;;;;;;16.1;70.7;101680;;;;
2021/06/26 04:40:49;;;;;;;31.5;28.4;;;;;;;16.2;71.6;101660;;;;
2021/06/26 04:44:49;;;;;;;31.5;28.4;;;;;;;16.3;70.0;101670;;;;
2021/06/26 04:52:49;;;;;;;31.5;28.4;;;;;;;16.4;70.9;101670;;;;
2021/06/26 04:54:49;;;;;;;31.5;28.4;;;;;;;16.3;70.2;101670;;;;
2021/06/26 04:56:49;;;;;;;31.6;28.4;;;;;;;16.4;70.9;101670;;;;
2021/06/26 04:58:49;;;;;;;31.6;28.4;;;;;;;16.3;72.6;101660;;;;
2021/06/26 05:00:50;;;;;;;31.6;28.4;;;;;;;16.2;72.2;101670;;;;
2021/06/26 05:02:49;;;;;;;31.6;28.4;;;;;;;16.3;72.3;101660;;;;
2021/06/26 05:10:49;;;;;;;31.6;28.4;;;;;;;16.2;73.3;101660;;;;
2021/06/26 05:12:49;;;;;;;31.6;28.4;;;;;;;16.1;73.1;101660;;;;
2021/06/26 05:14:49;;;;;;;31.6;28.4;;;;;;;16.3;71.9;101660;;;;
2021/06/26 05:24:49;;;;;;;30.9;27.7;;;;;;;16.5;70.8;101660;;;;
2021/06/26 05:30:49;;;;;;;30.9;27.7;;;;;;;16.8;71.3;101650;;;;
2021/06/26 05:34:49;;;;;;;30.9;27.7;;;;;;;16.9;72.7;101650;;;;
2021/06/26 05:36:49;;;;;;;31.2;28.0;;;;;;;17.0;72.3;101650;;;;
2021/06/26 05:40:49;;;;;;;31.2;28.0;;;;;;;17.1;73.5;101650;;;;
2021/06/26 05:42:49;;;;;;;31.2;28.0;;;;;;;17.2;72.5;101650;;;;
2021/06/26 05:46:49;;;;;;;31.2;28.0;;;;;;;17.3;72.0;101660;;;;
2021/06/26 05:52:49;;;;;;;31.2;28.0;;;;;;;17.4;72.4;101660;;;;
2021/06/26 05:54:49;;;;;;;31.2;28.0;;;;;;;17.5;72.0;101670;;;;
2021/06/26 05:56:49;;;;;;;41.6;37.4;;;;;;;17.6;71.7;101670;;;;
2021/06/26 06:02:49;;;;;;;41.6;37.4;;;;;;;17.7;71.6;101680;;;;
2021/06/26 06:04:49;;;;;;;41.6;37.4;;;;;;;17.8;71.4;101680;;;;
2021/06/26 06:06:49;;;;;;;41.6;37.4;;;;;;;17.7;70.3;101680;;;;
2021/06/26 06:10:49;;;;;;;41.6;37.4;;;;;;;17.8;71.6;101680;;;;
2021/06/26 06:12:49;;;;;;;41.6;37.4;;;;;;;17.9;70.8;101680;;;;
2021/06/26 06:16:49;;;;;;;32.9;29.7;;;;;;;18.0;71.0;101680;;;;
2021/06/26 06:18:49;;;;;;;32.9;29.7;;;;;;;18.1;71.3;101680;;;;
2021/06/26 06:22:49;;;;;;;32.9;29.7;;;;;;;18.2;70.5;101680;;;;
2021/06/26 06:24:49;;;;;;;32.9;29.7;;;;;;;18.1;70.7;101680;;;;
2021/06/26 06:26:49;;;;;;;32.9;29.7;;;;;;;18.2;71.1;101690;;;;
2021/06/26 06:28:49;;;;;;;32.9;29.7;;;;;;;18.0;71.0;101690;;;;
2021/06/26 06:32:53;;;;;;;32.9;29.7;;;;;;;18.2;71.0;101680;;;;
2021/06/26 06:36:49;;;;;;;35.5;32.1;;;;;;;18.3;71.0;101690;;;;
2021/06/26 06:38:49;;;;;;;35.5;32.1;;;;;;;18.4;71.1;101690;;;;
2021/06/26 06:44:49;;;;;;;35.5;32.1;;;;;;;18.3;70.5;101690;;;;
2021/06/26 06:46:49;;;;;;;35.5;32.1;;;;;;;18.4;70.7;101690;;;;
2021/06/26 06:48:49;;;;;;;35.5;32.1;;;;;;;18.5;70.2;101690;;;;
2021/06/26 06:52:49;;;;;;;35.5;32.1;;;;;;;18.4;70.3;101700;;;;
2021/06/26 06:54:49;;;;;;;35.5;32.1;;;;;;;18.5;70.0;101700;;;;
2021/06/26 06:56:49;;;;;;;29.7;27.0;;;;;;;18.8;69.9;101700;;;;
2021/06/26 06:58:49;;;;;;;29.7;27.0;;;;;;;18.9;69.2;101690;;;;
2021/06/26 07:00:49;;;;;;;29.7;27.0;;;;;;;18.8;69.6;101690;;;;
2021/06/26 07:04:49;;;;;;;29.7;27.0;;;;;;;18.9;69.1;101690;;;;
2021/06/26 07:06:49;;;;;;;29.7;27.0;;;;;;;19.0;69.8;101690;;;;
2021/06/26 07:08:49;;;;;;;29.7;27.0;;;;;;;19.1;69.1;101690;;;;
2021/06/26 07:10:49;;;;;;;29.7;27.0;;;;;;;19.2;68.4;101690;;;;
2021/06/26 07:12:49;;;;;;;29.7;27.0;;;;;;;19.0;68.2;101690;;;;
2021/06/26 07:14:49;;;;;;;29.7;27.0;;;;;;;19.2;67.5;101690;;;;
2021/06/26 07:22:49;;;;;;;24.6;22.3;;;;;;;19.3;67.8;101690;;;;
2021/06/26 07:24:49;;;;;;;24.6;22.3;;;;;;;19.4;68.6;101690;;;;
2021/06/26 07:26:50;;;;;;;24.6;22.3;;;;;;;19.5;66.9;101680;;;;
2021/06/26 07:28:49;;;;;;;24.6;22.3;;;;;;;19.7;67.3;101680;;;;
2021/06/26 07:30:49;;;;;;;24.6;22.3;;;;;;;19.5;66.5;101680;;;;
2021/06/26 07:34:49;;;;;;;24.6;22.3;;;;;;;19.6;66.5;101680;;;;
2021/06/26 07:36:49;;;;;;;24.5;22.3;;;;;;;19.7;66.4;101680;;;;
2021/06/26 07:38:49;;;;;;;24.5;22.3;;;;;;;19.6;66.2;101680;;;;
2021/06/26 07:44:49;;;;;;;24.5;22.3;;;;;;;19.7;66.5;101670;;;;
2021/06/26 07:46:49;;;;;;;24.5;22.3;;;;;;;19.9;65.1;101680;;;;
2021/06/26 07:48:49;;;;;;;24.5;22.3;;;;;;;19.8;64.7;101680;;;;
2021/06/26 07:52:49;;;;;;;24.5;22.3;;;;;;;19.9;64.6;101680;;;;
2021/06/26 07:56:49;;;;;;;26.5;24.1;;;;;;;20.0;65.4;101670;;;;
2021/06/26 07:58:49;;;;;;;26.5;24.1;;;;;;;20.1;65.2;101670;;;;
2021/06/26 08:00:49;;;;;;;26.5;24.1;;;;;;;20.2;64.1;101670;;;;
2021/06/26 08:02:49;;;;;;;26.5;24.1;;;;;;;20.1;63.6;101670;;;;
2021/06/26 08:06:49;;;;;;;26.5;24.1;;;;;;;20.2;64.7;101670;;;;
2021/06/26 08:08:49;;;;;;;26.5;24.1;;;;;;;20.4;64.3;101660;;;;
2021/06/26 08:10:49;;;;;;;26.5;24.1;;;;;;;20.6;64.2;101660;;;;
2021/06/26 08:12:49;;;;;;;26.5;24.1;;;;;;;20.4;64.1;101670;;;;
2021/06/26 08:14:49;;;;;;;26.5;24.1;;;;;;;20.6;64.2;101670;;;;
2021/06/26 08:16:49;;;;;;;25.9;23.6;;;;;;;20.7;62.9;101660;;;;
2021/06/26 08:18:49;;;;;;;25.9;23.6;;;;;;;20.8;64.2;101670;;;;
2021/06/26 08:20:49;;;;;;;25.9;23.6;;;;;;;21.0;62.5;101660;;;;
2021/06/26 08:24:49;;;;;;;25.9;23.6;;;;;;;20.9;61.7;101660;;;;
2021/06/26 08:30:49;;;;;;;25.9;23.6;;;;;;;21.1;62.5;101660;;;;
2021/06/26 08:32:49;;;;;;;25.9;23.6;;;;;;;21.2;62.1;101660;;;;
2021/06/26 08:34:59;;;;;;;25.9;23.6;;;;;;;21.3;61.8;101660;;;;
2021/06/26 08:38:49;;;;;;;23.8;21.6;;;;;;;21.5;60.4;101650;;;;
2021/06/26 08:40:49;;;;;;;23.8;21.6;;;;;;;21.6;61.0;101660;;;;
2021/06/26 08:46:49;;;;;;;23.8;21.6;;;;;;;21.5;58.9;101660;;;;
2021/06/26 08:48:49;;;;;;;23.8;21.6;;;;;;;21.6;59.3;101660;;;;
2021/06/26 08:50:49;;;;;;;23.8;21.6;;;;;;;21.8;59.7;101660;;;;
2021/06/26 08:52:49;;;;;;;23.8;21.6;;;;;;;22.0;58.8;101660;;;;
2021/06/26 08:56:49;;;;;;;23.3;21.0;;;;;;;22.1;59.7;101660;;;;
2021/06/26 08:58:49;;;;;;;23.3;21.0;;;;;;;22.2;58.4;101660;;;;
2021/06/26 09:02:49;;;;;;;23.3;21.0;;;;;;;22.1;58.6;101660;;;;
2021/06/26 09:04:49;;;;;;;23.3;21.0;;;;;;;22.0;56.8;101660;;;;
2021/06/26 09:08:49;;;;;;;23.3;21.0;;;;;;;22.1;57.4;101670;;;;
2021/06/26 09:12:50;;;;;;;23.3;21.0;;;;;;;22.0;57.2;101670;;;;
2021/06/26 09:14:49;;;;;;;23.3;21.0;;;;;;;22.2;56.6;101660;;;;
2021/06/26 09:16:49;;;;;;;23.1;20.9;;;;;;;22.4;57.1;101660;;;;
2021/06/26 09:20:51;;;;;;;23.1;20.9;;;;;;;22.3;56.3;101670;;;;
2021/06/26 09:22:52;;;;;;;23.1;20.9;;;;;;;22.5;55.7;101670;;;;
2021/06/26 09:26:49;;;;;;;23.1;20.9;;;;;;;22.6;56.3;101670;;;;
2021/06/26 09:28:49;;;;;;;23.1;20.9;;;;;;;22.8;53.4;101660;;;;
2021/06/26 09:32:49;;;;;;;23.1;20.9;;;;;;;22.9;54.5;101660;;;;
2021/06/26 09:34:49;;;;;;;23.1;20.9;;;;;;;23.1;54.8;101660;;;;
2021/06/26 09:40:49;;;;;;;23.5;21.2;;;;;;;23.0;52.4;101660;;;;
2021/06/26 09:42:49;;;;;;;23.5;21.2;;;;;;;22.8;52.7;101670;;;;
2021/06/26 09:44:49;;;;;;;23.5;21.2;;;;;;;23.0;54.0;101660;;;;
2021/06/26 09:46:50;;;;;;;23.5;21.2;;;;;;;23.1;52.9;101660;;;;
2021/06/26 09:48:49;;;;;;;23.5;21.2;;;;;;;22.9;52.8;101660;;;;
2021/06/26 09:50:49;;;;;;;23.5;21.2;;;;;;;23.0;52.3;101660;;;;
2021/06/26 09:58:49;;;;;;;23.0;20.8;;;;;;;23.1;52.0;101660;;;;
2021/06/26 10:00:52;;;;;;;23.0;20.8;;;;;;;23.3;52.2;101660;;;;
2021/06/26 10:02:49;;;;;;;23.0;20.8;;;;;;;23.2;51.4;101660;;;;
2021/06/26 10:04:49;;;;;;;23.0;20.8;;;;;;;23.3;52.2;101670;;;;
2021/06/26 10:06:49;;;;;;;23.0;20.8;;;;;;;23.2;50.4;101660;;;;
2021/06/26 10:08:49;;;;;;;23.0;20.8;;;;;;;23.5;51.2;101660;;;;
2021/06/26 10:10:49;;;;;;;23.0;20.8;;;;;;;23.4;51.4;101660;;;;
2021/06/26 10:12:49;;;;;;;23.0;20.8;;;;;;;23.5;50.2;101670;;;;
2021/06/26 10:14:49;;;;;;;23.0;20.8;;;;;;;23.8;50.4;101670;;;;
2021/06/26 10:18:49;;;;;;;20.8;18.9;;;;;;;23.7;48.4;101670;;;;
2021/06/26 10:24:49;;;;;;;20.8;18.9;;;;;;;23.8;49.6;101660;;;;
2021/06/26 10:26:49;;;;;;;20.8;18.9;;;;;;;24.0;48.8;101660;;;;
2021/06/26 10:28:49;;;;;;;20.8;18.9;;;;;;;23.8;48.9;101650;;;;
2021/06/26 10:30:49;;;;;;;20.8;18.9;;;;;;;23.7;48.9;101650;;;;
2021/06/26 10:32:49;;;;;;;20.8;18.9;;;;;;;23.8;48.1;101640;;;;
2021/06/26 10:34:49;;;;;;;20.8;18.9;;;;;;;23.9;47.6;101640;;;;
2021/06/26 10:36:54;;;;;;;25.1;22.7;;;;;;;24.0;49.5;101640;;;;
2021/06/26 10:38:49;;;;;;;25.1;22.7;;;;;;;24.2;48.4;101640;;;;
2021/06/26 10:40:49;;;;;;;25.1;22.7;;;;;;;24.3;48.0;101640;;;;
2021/06/26 10:42:49;;;;;;;25.1;22.7;;;;;;;24.4;46.7;101640;;;;
2021/06/26 10:44:49;;;;;;;25.1;22.7;;;;;;;24.5;47.7;101640;;;;
2021/06/26 10:46:49;;;;;;;25.1;22.7;;;;;;;24.7;48.2;101640;;;;
2021/06/26 10:52:49;;;;;;;25.1;22.7;;;;;;;24.9;47.2;101640;;;;
2021/06/26 10:54:49;;;;;;;25.1;22.7;;;;;;;25.0;47.6;101640;;;;
2021/06/26 10:56:49;;;;;;;24.9;22.7;;;;;;;25.2;47.9;101640;;;;
2021/06/26 10:58:49;;;;;;;24.9;22.7;;;;;;;25.1;48.0;101640;;;;
2021/06/26 11:00:49;;;;;;;24.9;22.7;;;;;;;25.4;47.9;101640;;;;
2021/06/26 11:02:49;;;;;;;24.9;22.7;;;;;;;25.3;45.5;101640;;;;
2021/06/26 11:12:49;;;;;;;24.9;22.7;;;;;;;25.2;44.4;101640;;;;
2021/06/26 11:16:49;;;;;;;22.1;20.1;;;;;;;25.1;45.8;101640;;;;
2021/06/26 11:18:49;;;;;;;22.1;20.1;;;;;;;25.0;45.2;101640;;;;
2021/06/26 11:20:49;;;;;;;22.1;20.1;;;;;;;24.9;45.5;101640;;;;
2021/06/26 11:22:49;;;;;;;22.1;20.1;;;;;;;24.8;44.6;101630;;;;
2021/06/26 11:24:49;;;;;;;22.1;20.1;;;;;;;24.9;45.9;101630;;;;
2021/06/26 11:26:49;;;;;;;22.1;20.1;;;;;;;25.0;45.1;101630;;;;
2021/06/26 11:30:50;;;;;;;22.1;20.1;;;;;;;25.1;46.0;101640;;;;
2021/06/26 11:32:49;;;;;;;22.1;20.1;;;;;;;25.3;45.6;101640;;;;
2021/06/26 11:34:49;;;;;;;22.1;20.1;;;;;;;25.5;45.1;101630;;;;
2021/06/26 11:38:49;;;;;;;23.4;21.3;;;;;;;25.7;45.7;101640;;;;
2021/06/26 11:42:49;;;;;;;23.4;21.3;;;;;;;25.9;45.1;101630;;;;
2021/06/26 11:44:49;;;;;;;23.4;21.3;;;;;;;26.1;45.6;101630;;;;
2021/06/26 11:48:49;;;;;;;23.4;21.3;;;;;;;25.8;43.0;101630;;;;
2021/06/26 11:50:49;;;;;;;23.4;21.3;;;;;;;25.9;44.0;101630;;;;
2021/06/26 11:56:49;;;;;;;21.9;19.7;;;;;;;26.0;43.9;101630;;;;
2021/06/26 11:58:49;;;;;;;21.9;19.7;;;;;;;26.1;43.1;101630;;;;
2021/06/26 12:00:49;;;;;;;21.9;19.7;;;;;;;26.3;44.3;101630;;;;
2021/06/26 12:02:49;;;;;;;21.9;19.7;;;;;;;26.5;44.5;101630;;;;
2021/06/26 12:04:49;;;;;;;21.9;19.7;;;;;;;26.4;42.8;101630;;;;
2021/06/26 12:06:49;;;;;;;21.9;19.7;;;;;;;26.5;44.3;101630;;;;
2021/06/26 12:08:51;;;;;;;21.9;19.7;;;;;;;26.6;42.9;101630;;;;
2021/06/26 12:14:49;;;;;;;21.9;19.7;;;;;;;26.5;42.1;101630;;;;
2021/06/26 12:18:49;;;;;;;22.9;20.9;;;;;;;26.6;43.8;101630;;;;
2021/06/26 12:20:49;;;;;;;22.9;20.9;;;;;;;26.5;42.5;101630;;;;
2021/06/26 12:22:49;;;;;;;22.9;20.9;;;;;;;26.1;40.2;101630;;;;
2021/06/26 12:24:49;;;;;;;22.9;20.9;;;;;;;25.9;42.2;101630;;;;
2021/06/26 12:26:49;;;;;;;22.9;20.9;;;;;;;26.1;42.3;101630;;;;
2021/06/26 12:28:49;;;;;;;22.9;20.9;;;;;;;26.0;39.9;101630;;;;
2021/06/26 12:30:52;;;;;;;22.9;20.9;;;;;;;26.2;41.0;101630;;;;
2021/06/26 12:32:49;;;;;;;22.9;20.9;;;;;;;26.1;41.0;101630;;;;
2021/06/26 12:34:49;;;;;;;22.9;20.9;;;;;;;26.3;41.0;101620;;;;
2021/06/26 12:36:49;;;;;;;15.4;14.1;;;;;;;26.6;41.2;101620;;;;
2021/06/26 12:38:49;;;;;;;15.4;14.1;;;;;;;26.8;41.5;101620;;;;
2021/06/26 12:40:52;;;;;;;15.4;14.1;;;;;;;26.6;40.9;101620;;;;
2021/06/26 12:42:49;;;;;;;15.4;14.1;;;;;;;26.5;38.7;101620;;;;
2021/06/26 12:44:49;;;;;;;15.4;14.1;;;;;;;26.3;39.3;101620;;;;
2021/06/26 12:46:49;;;;;;;15.4;14.1;;;;;;;26.4;40.4;101620;;;;
2021/06/26 12:48:52;;;;;;;15.4;14.1;;;;;;;26.5;39.2;101610;;;;
2021/06/26 12:50:50;;;;;;;15.4;14.1;;;;;;;26.6;39.7;101620;;;;
2021/06/26 12:52:49;;;;;;;15.4;14.1;;;;;;;26.9;40.1;101610;;;;
2021/06/26 12:54:49;;;;;;;15.4;14.1;;;;;;;27.1;41.4;101610;;;;
2021/06/26 13:00:49;;;;;;;16.3;14.8;;;;;;;27.3;40.3;101610;;;;
2021/06/26 13:02:49;;;;;;;16.3;14.8;;;;;;;27.4;39.8;101610;;;;
2021/06/26 13:04:50;;;;;;;16.3;14.8;;;;;;;27.2;40.3;101610;;;;
2021/06/26 13:08:49;;;;;;;16.3;14.8;;;;;;;27.4;39.7;101610;;;;
2021/06/26 13:10:49;;;;;;;16.3;14.8;;;;;;;27.2;36.7;101610;;;;
2021/06/26 13:12:49;;;;;;;16.3;14.8;;;;;;;26.8;38.4;101600;;;;
2021/06/26 13:14:50;;;;;;;16.3;14.8;;;;;;;27.1;40.5;101600;;;;
2021/06/26 13:18:49;;;;;;;14.9;13.6;;;;;;;26.9;37.8;101600;;;;
2021/06/26 13:20:49;;;;;;;14.9;13.6;;;;;;;26.7;37.7;101600;;;;
2021/06/26 13:22:49;;;;;;;14.9;13.6;;;;;;;26.6;37.4;101600;;;;
2021/06/26 13:24:49;;;;;;;14.9;13.6;;;;;;;26.9;38.1;101590;;;;
2021/06/26 13:28:59;;;;;;;14.9;13.6;;;;;;;26.8;38.3;101600;;;;
2021/06/26 13:30:49;;;;;;;14.9;13.6;;;;;;;27.2;37.6;101590;;;;
2021/06/26 13:32:52;;;;;;;14.9;13.6;;;;;;;27.0;38.2;101590;;;;
2021/06/26 13:36:49;;;;;;;16.6;15.2;;;;;;;26.9;36.4;101590;;;;
2021/06/26 13:40:50;;;;;;;16.6;15.2;;;;;;;26.8;37.9;101580;;;;
2021/06/26 13:42:49;;;;;;;16.6;15.2;;;;;;;27.2;38.0;101580;;;;
2021/06/26 13:46:49;;;;;;;16.6;15.2;;;;;;;26.9;36.8;101580;;;;
2021/06/26 13:48:49;;;;;;;16.6;15.2;;;;;;;27.0;37.2;101570;;;;
2021/06/26 13:50:50;;;;;;;16.6;15.2;;;;;;;27.1;38.2;101570;;;;
2021/06/26 13:52:49;;;;;;;16.6;15.2;;;;;;;27.0;38.4;101570;;;;
2021/06/26 13:54:49;;;;;;;16.6;15.2;;;;;;;27.1;37.2;101570;;;;
2021/06/26 13:58:49;;;;;;;14.6;13.4;;;;;;;27.6;36.9;101560;;;;
2021/06/26 14:00:49;;;;;;;14.6;13.4;;;;;;;27.4;36.3;101560;;;;
2021/06/26 14:04:49;;;;;;;14.6;13.4;;;;;;;27.2;37.9;101560;;;;
2021/06/26 14:06:49;;;;;;;14.6;13.4;;;;;;;27.6;36.9;101550;;;;
2021/06/26 14:08:49;;;;;;;14.6;13.4;;;;;;;27.5;38.0;101560;;;;
2021/06/26 14:10:51;;;;;;;14.6;13.4;;;;;;;27.8;36.2;101550;;;;
2021/06/26 14:12:49;;;;;;;14.6;13.4;;;;;;;27.7;37.4;101550;;;;
2021/06/26 14:14:49;;;;;;;14.6;13.4;;;;;;;27.6;36.2;101550;;;;
2021/06/26 14:18:49;;;;;;;15.8;13.7;;;;;;;27.5;36.5;101540;;;;
2021/06/26 14:20:49;;;;;;;15.8;13.7;;;;;;;27.4;40.1;101540;;;;
2021/06/26 14:22:49;;;;;;;15.8;13.7;;;;;;;27.5;40.8;101540;;;;
2021/06/26 14:24:49;;;;;;;15.8;13.7;;;;;;;27.6;37.3;101540;;;;
2021/06/26 14:26:49;;;;;;;15.8;13.7;;;;;;;27.3;37.4;101550;;;;
2021/06/26 14:28:49;;;;;;;15.8;13.7;;;;;;;27.1;37.4;101550;;;;
2021/06/26 14:30:49;;;;;;;15.8;13.7;;;;;;;26.9;37.8;101550;;;;
2021/06/26 14:32:49;;;;;;;15.8;13.7;;;;;;;26.6;37.7;101540;;;;
2021/06/26 14:34:49;;;;;;;15.8;13.7;;;;;;;27.0;39.1;101550;;;;
2021/06/26 14:36:49;;;;;;;13.6;12.2;;;;;;;27.1;38.0;101550;;;;
2021/06/26 14:40:49;;;;;;;13.6;12.2;;;;;;;27.2;36.2;101540;;;;
2021/06/26 14:42:49;;;;;;;13.6;12.2;;;;;;;27.1;36.4;101540;;;;
2021/06/26 14:46:49;;;;;;;13.6;12.2;;;;;;;27.4;36.9;101530;;;;
2021/06/26 14:48:49;;;;;;;13.6;12.2;;;;;;;27.6;36.3;101530;;;;
2021/06/26 14:50:49;;;;;;;13.6;12.2;;;;;;;27.5;37.4;101530;;;;
2021/06/26 14:52:49;;;;;;;13.6;12.2;;;;;;;27.3;36.8;101530;;;;
2021/06/26 14:54:49;;;;;;;13.6;12.2;;;;;;;27.2;37.5;101530;;;;
2021/06/26 14:56:49;;;;;;;13.3;12.2;;;;;;;27.0;35.8;101530;;;;
2021/06/26 15:00:49;;;;;;;13.3;12.2;;;;;;;27.1;39.6;101530;;;;
2021/06/26 15:02:50;;;;;;;13.3;12.2;;;;;;;27.2;38.0;101520;;;;
2021/06/26 15:08:49;;;;;;;13.3;12.2;;;;;;;27.1;38.0;101520;;;;
2021/06/26 15:10:49;;;;;;;13.3;12.2;;;;;;;27.2;38.4;101520;;;;
2021/06/26 15:12:50;;;;;;;13.3;12.2;;;;;;;27.1;38.0;101520;;;;
2021/06/26 15:14:49;;;;;;;13.3;12.2;;;;;;;27.4;37.8;101510;;;;
2021/06/26 15:16:49;;;;;;;13.9;12.8;;;;;;;27.8;37.0;101510;;;;
2021/06/26 15:18:49;;;;;;;13.9;12.8;;;;;;;27.9;36.7;101510;;;;
2021/06/26 15:20:49;;;;;;;13.9;12.8;;;;;;;27.7;37.3;101500;;;;
2021/06/26 15:22:51;;;;;;;13.9;12.8;;;;;;;27.9;36.7;101500;;;;
2021/06/26 15:24:49;;;;;;;13.9;12.8;;;;;;;27.8;36.3;101500;;;;
2021/06/26 15:26:49;;;;;;;13.9;12.8;;;;;;;27.9;35.8;101500;;;;
2021/06/26 15:30:49;;;;;;;13.9;12.8;;;;;;;28.0;35.4;101490;;;;
2021/06/26 15:32:49;;;;;;;13.9;12.8;;;;;;;28.6;35.4;101500;;;;
2021/06/26 15:34:49;;;;;;;13.9;12.8;;;;;;;28.3;36.1;101500;;;;
2021/06/26 15:36:49;;;;;;;15.6;14.2;;;;;;;28.6;34.7;101490;;;;
2021/06/26 15:38:49;;;;;;;15.6;14.2;;;;;;;28.8;35.1;101490;;;;
2021/06/26 15:40:49;;;;;;;15.6;14.2;;;;;;;29.0;35.5;101490;;;;
2021/06/26 15:46:49;;;;;;;15.6;14.2;;;;;;;28.8;34.2;101490;;;;
2021/06/26 15:48:49;;;;;;;15.6;14.2;;;;;;;28.4;35.0;101490;;;;
2021/06/26 15:52:49;;;;;;;15.6;14.2;;;;;;;28.8;35.9;101490;;;;
2021/06/26 15:56:49;;;;;;;14.2;13.0;;;;;;;28.7;35.5;101490;;;;
2021/06/26 15:58:49;;;;;;;14.2;13.0;;;;;;;28.9;35.0;101490;;;;
2021/06/26 16:00:49;;;;;;;14.2;13.0;;;;;;;29.3;34.5;101500;;;;
2021/06/26 16:02:49;;;;;;;14.2;13.0;;;;;;;28.8;33.5;101500;;;;
2021/06/26 16:04:49;;;;;;;14.2;13.0;;;;;;;28.7;33.3;101500;;;;
2021/06/26 16:08:49;;;;;;;14.2;13.0;;;;;;;28.9;33.6;101500;;;;
2021/06/26 16:10:49;;;;;;;14.2;13.0;;;;;;;28.6;35.3;101500;;;;
2021/06/26 16:12:49;;;;;;;14.2;13.0;;;;;;;28.5;34.3;101490;;;;
2021/06/26 16:14:49;;;;;;;14.2;13.0;;;;;;;28.2;34.6;101490;;;;
2021/06/26 16:16:49;;;;;;;12.8;11.8;;;;;;;27.8;34.4;101490;;;;
2021/06/26 16:18:49;;;;;;;12.8;11.8;;;;;;;28.0;35.6;101490;;;;
2021/06/26 16:22:49;;;;;;;12.8;11.8;;;;;;;28.1;34.1;101490;;;;
2021/06/26 16:24:49;;;;;;;12.8;11.8;;;;;;;28.0;34.8;101490;;;;
2021/06/26 16:26:49;;;;;;;12.8;11.8;;;;;;;28.1;35.6;101490;;;;
2021/06/26 16:28:49;;;;;;;12.8;11.8;;;;;;;27.9;36.4;101490;;;;
2021/06/26 16:30:49;;;;;;;12.8;11.8;;;;;;;28.0;35.3;101490;;;;
2021/06/26 16:32:49;;;;;;;12.8;11.8;;;;;;;27.7;36.1;101490;;;;
2021/06/26 16:34:49;;;;;;;12.8;11.8;;;;;;;28.0;36.6;101490;;;;
2021/06/26 16:36:52;;;;;;;13.0;11.8;;;;;;;28.1;36.8;101490;;;;
2021/06/26 16:40:52;;;;;;;13.0;11.8;;;;;;;28.2;35.4;101480;;;;
2021/06/26 16:42:49;;;;;;;13.0;11.8;;;;;;;27.8;36.3;101480;;;;
2021/06/26 16:44:49;;;;;;;13.0;11.8;;;;;;;27.6;36.1;101480;;;;
2021/06/26 16:46:49;;;;;;;13.0;11.8;;;;;;;27.5;35.4;101480;;;;
2021/06/26 16:48:49;;;;;;;13.0;11.8;;;;;;;27.6;35.5;101470;;;;
2021/06/26 16:50:49;;;;;;;13.0;11.8;;;;;;;27.8;36.2;101470;;;;
2021/06/26 16:52:49;;;;;;;13.0;11.8;;;;;;;27.5;36.3;101470;;;;
2021/06/26 16:58:49;;;;;;;14.1;12.9;;;;;;;27.7;36.6;101460;;;;
2021/06/26 17:00:49;;;;;;;14.1;12.9;;;;;;;27.5;37.1;101450;;;;
2021/06/26 17:02:49;;;;;;;14.1;12.9;;;;;;;27.7;36.5;101450;;;;
2021/06/26 17:04:49;;;;;;;14.1;12.9;;;;;;;27.4;37.1;101450;;;;
2021/06/26 17:06:49;;;;;;;14.1;12.9;;;;;;;27.5;38.1;101450;;;;
2021/06/26 17:08:49;;;;;;;14.1;12.9;;;;;;;27.8;37.9;101450;;;;
2021/06/26 17:10:50;;;;;;;14.1;12.9;;;;;;;27.6;36.9;101450;;;;
2021/06/26 17:14:49;;;;;;;14.1;12.9;;;;;;;27.5;36.7;101450;;;;
2021/06/26 17:16:49;;;;;;;14.1;12.9;;;;;;;27.9;37.1;101460;;;;
2021/06/26 17:18:49;;;;;;;14.1;12.9;;;;;;;28.3;37.1;101460;;;;
2021/06/26 17:20:50;;;;;;;14.1;12.9;;;;;;;28.5;36.5;101460;;;;
2021/06/26 17:22:49;;;;;;;14.1;12.9;;;;;;;28.4;35.3;101460;;;;
2021/06/26 17:26:49;;;;;;;14.1;12.9;;;;;;;28.6;36.1;101460;;;;
2021/06/26 17:28:49;;;;;;;14.1;12.9;;;;;;;28.7;34.8;101460;;;;
2021/06/26 17:30:49;;;;;;;14.1;12.9;;;;;;;28.4;34.2;101460;;;;
2021/06/26 17:32:49;;;;;;;14.1;12.9;;;;;;;28.6;34.7;101460;;;;
2021/06/26 17:34:49;;;;;;;14.1;12.9;;;;;;;28.5;34.7;101470;;;;
2021/06/26 17:36:49;;;;;;;11.7;10.8;;;;;;;28.9;34.3;101470;;;;
2021/06/26 17:38:49;;;;;;;11.7;10.8;;;;;;;28.8;33.6;101470;;;;
2021/06/26 17:40:49;;;;;;;11.7;10.8;;;;;;;28.7;34.7;101470;;;;
2021/06/26 17:42:49;;;;;;;11.7;10.8;;;;;;;28.6;34.2;101470;;;;
2021/06/26 17:44:49;;;;;;;11.7;10.8;;;;;;;28.5;35.1;101460;;;;
2021/06/26 17:46:49;;;;;;;11.7;10.8;;;;;;;28.6;36.0;101470;;;;
2021/06/26 17:48:49;;;;;;;11.7;10.8;;;;;;;28.2;35.7;101460;;;;
2021/06/26 17:50:49;;;;;;;11.7;10.8;;;;;;;28.3;35.2;101460;;;;
2021/06/26 17:52:49;;;;;;;11.7;10.8;;;;;;;28.0;36.2;101460;;;;
2021/06/26 17:54:49;;;;;;;11.7;10.8;;;;;;;28.1;35.4;101460;;;;
2021/06/26 17:56:49;;;;;;;13.6;12.5;;;;;;;27.6;35.4;101460;;;;
2021/06/26 17:58:49;;;;;;;13.6;12.5;;;;;;;27.4;36.8;101460;;;;
2021/06/26 18:00:49;;;;;;;13.6;12.5;;;;;;;27.5;36.2;101470;;;;
2021/06/26 18:02:49;;;;;;;13.6;12.5;;;;;;;27.4;35.9;101470;;;;
2021/06/26 18:06:49;;;;;;;13.6;12.5;;;;;;;27.3;37.2;101470;;;;
2021/06/26 18:08:49;;;;;;;13.6;12.5;;;;;;;27.1;36.4;101470;;;;
2021/06/26 18:10:49;;;;;;;13.6;12.5;;;;;;;27.2;37.2;101480;;;;
2021/06/26 18:12:51;;;;;;;13.6;12.5;;;;;;;27.0;37.7;101480;;;;
2021/06/26 18:14:49;;;;;;;13.6;12.5;;;;;;;26.6;37.0;101490;;;;
2021/06/26 18:20:49;;;;;;;12.1;11.2;;;;;;;26.5;38.1;101480;;;;
2021/06/26 18:22:49;;;;;;;12.1;11.2;;;;;;;26.3;38.9;101490;;;;
2021/06/26 18:26:49;;;;;;;12.1;11.2;;;;;;;26.1;38.2;101490;;;;
2021/06/26 18:28:49;;;;;;;12.1;11.2;;;;;;;26.0;38.6;101490;;;;
2021/06/26 18:30:49;;;;;;;12.1;11.2;;;;;;;25.9;39.6;101490;;;;
2021/06/26 18:32:49;;;;;;;12.1;11.2;;;;;;;25.8;39.4;101490;;;;
2021/06/26 18:36:49;;;;;;;11.9;10.9;;;;;;;25.9;39.5;101490;;;;
2021/06/26 18:38:49;;;;;;;11.9;10.9;;;;;;;26.1;40.0;101500;;;;
2021/06/26 18:40:53;;;;;;;11.9;10.9;;;;;;;25.9;39.2;101490;;;;
2021/06/26 18:44:49;;;;;;;11.9;10.9;;;;;;;25.7;40.5;101490;;;;
2021/06/26 18:46:49;;;;;;;11.9;10.9;;;;;;;25.8;41.0;101490;;;;
2021/06/26 18:50:49;;;;;;;11.9;10.9;;;;;;;25.7;41.1;101480;;;;
2021/06/26 18:54:49;;;;;;;11.9;10.9;;;;;;;25.8;40.7;101490;;;;
2021/06/26 18:56:49;;;;;;;11.4;10.4;;;;;;;25.7;39.9;101490;;;;
2021/06/26 19:00:49;;;;;;;11.4;10.4;;;;;;;25.5;39.8;101490;;;;
2021/06/26 19:02:49;;;;;;;11.4;10.4;;;;;;;25.6;40.4;101490;;;;
2021/06/26 19:06:49;;;;;;;11.4;10.4;;;;;;;25.4;40.1;101490;;;;
2021/06/26 19:08:52;;;;;;;11.4;10.4;;;;;;;25.3;40.4;101490;;;;
2021/06/26 19:10:50;;;;;;;11.4;10.4;;;;;;;25.1;40.5;101490;;;;
2021/06/26 19:12:49;;;;;;;11.4;10.4;;;;;;;25.0;40.5;101490;;;;
2021/06/26 19:14:49;;;;;;;11.4;10.4;;;;;;;25.1;41.5;101490;;;;
2021/06/26 19:16:49;;;;;;;12.4;11.3;;;;;;;25.2;41.4;101490;;;;
2021/06/26 19:20:49;;;;;;;12.4;11.3;;;;;;;25.1;42.3;101500;;;;
2021/06/26 19:22:49;;;;;;;12.4;11.3;;;;;;;25.0;42.5;101500;;;;
2021/06/26 19:24:49;;;;;;;12.4;11.3;;;;;;;25.1;42.0;101500;;;;
2021/06/26 19:28:49;;;;;;;12.4;11.3;;;;;;;25.0;42.9;101500;;;;
2021/06/26 19:30:49;;;;;;;12.4;11.3;;;;;;;24.9;42.7;101500;;;;
2021/06/26 19:32:50;;;;;;;12.4;11.3;;;;;;;24.8;43.0;101500;;;;
2021/06/26 19:34:49;;;;;;;12.4;11.3;;;;;;;24.9;42.8;101500;;;;
2021/06/26 19:40:49;;;;;;;15.9;14.4;;;;;;;24.8;43.2;101500;;;;
2021/06/26 19:44:49;;;;;;;15.9;14.4;;;;;;;24.7;43.4;101500;;;;
2021/06/26 19:46:49;;;;;;;15.9;14.4;;;;;;;24.6;43.5;101500;;;;
2021/06/26 19:48:49;;;;;;;15.9;14.4;;;;;;;24.5;44.3;101500;;;;